Time;durP1;ratioP1;P1;durP2;ratioP2;P2;SDS_P1;SDS_P2;PMS_P1;PMS_P2;Temp;Humidity;BMP_temperature;BMP_pressure;BME280_temperature;BME280_humidity;BME280_pressure;Samples;Min_cycle;Max_cycle;Signal;HPM_P1;HPM_P2
2022/01/24 00:00:18;;;;;;;21.50;11.90;;;;;;;-0.63;51.74;101543.63;117246;1186;24152;-51
2022/01/24 00:02:46;;;;;;;29.70;15.10;;;;;;;-0.63;51.81;101537.06;117011;1187;22925;-51
2022/01/24 00:05:17;;;;;;;25.20;13.70;;;;;;;-0.62;51.49;101537.66;117207;1185;23485;-51
2022/01/24 00:07:46;;;;;;;31.50;15.80;;;;;;;-0.61;51.60;101533.20;117209;1178;23464;-51
2022/01/24 00:10:18;;;;;;;28.30;14.90;;;;;;;-0.63;51.45;101533.80;117244;1186;21896;-51
2022/01/24 00:13:30;;;;;;;27.40;13.90;;;;;;;-0.62;51.57;101535.20;117219;1178;22619;-61
2022/01/24 00:16:24;;;;;;;32.80;17.20;;;;;;;-0.66;51.50;101539.34;117078;1185;21859;-51
2022/01/24 00:26:59;;;;;;;32.80;16.60;;;;;;;-0.79;51.66;101548.66;117243;1185;23452;-60
2022/01/24 00:29:27;;;;;;;40.20;18.10;;;;;;;-0.78;51.80;101548.67;117216;1186;23452;-51
2022/01/24 00:31:56;;;;;;;41.30;19.70;;;;;;;-0.79;51.75;101549.33;117269;1184;23452;-61
2022/01/24 00:34:24;;;;;;;38.20;17.60;;;;;;;-0.80;51.54;101551.55;117265;1185;23453;-61
2022/01/24 00:36:53;;;;;;;40.40;20.10;;;;;;;-0.80;51.59;101550.48;117240;1186;23453;-51
2022/01/24 00:39:22;;;;;;;44.60;19.30;;;;;;;-0.83;51.81;101552.59;117265;1178;23487;-60
2022/01/24 00:47:18;;;;;;;;;;;;;;;-0.87;51.64;101551.48;117201;1186;22962;-51
2022/01/24 00:55:20;;;;;;;47.30;21.30;;;;;;;-0.88;51.78;101549.00;117246;1184;23449;-61
2022/01/24 00:57:49;;;;;;;45.30;20.00;;;;;;;-0.87;51.88;101550.10;117055;1178;21853;-61
2022/01/24 01:00:17;;;;;;;49.20;22.60;;;;;;;-0.86;51.69;101551.36;117087;1178;23455;-61
2022/01/24 01:02:45;;;;;;;42.60;20.90;;;;;;;-0.84;51.67;101549.90;117214;1186;24206;-61
2022/01/24 01:05:37;;;;;;;45.00;20.80;;;;;;;-0.86;51.75;101551.55;117221;1182;21857;-61
2022/01/24 01:19:07;;;;;;;40.50;20.60;;;;;;;-0.80;52.01;101542.88;117267;1185;22517;-51
2022/01/24 01:21:36;;;;;;;38.60;20.00;;;;;;;-0.79;52.06;101541.42;117246;1186;22707;-61
2022/01/24 01:24:04;;;;;;;33.80;18.10;;;;;;;-0.78;51.92;101544.58;117139;1186;21855;-52
2022/01/24 01:26:38;;;;;;;41.20;20.20;;;;;;;-0.76;51.97;101548.64;117264;1183;24609;-52
2022/01/24 01:29:29;;;;;;;34.00;17.70;;;;;;;-0.76;51.71;101547.43;117221;1185;23720;-60
2022/01/24 01:37:39;;;;;;;35.50;17.70;;;;;;;-0.80;51.72;101548.42;117245;1181;21857;-61
2022/01/24 01:54:20;;;;;;;27.80;15.50;;;;;;;-0.93;52.14;101545.33;117142;1184;24173;-51
2022/01/24 01:56:49;;;;;;;30.00;16.90;;;;;;;-0.93;52.15;101547.08;117074;1187;23475;-51
2022/01/24 01:59:18;;;;;;;28.20;15.80;;;;;;;-0.91;52.27;101547.33;117270;1184;21871;-52
2022/01/24 02:01:46;;;;;;;30.90;16.50;;;;;;;-0.92;52.40;101549.16;117306;1185;23195;-61
2022/01/24 02:04:15;;;;;;;34.20;18.90;;;;;;;-0.93;52.10;101550.67;117293;1185;23449;-61
2022/01/24 02:06:43;;;;;;;28.50;16.40;;;;;;;-0.91;52.30;101554.41;117212;1182;21853;-51
2022/01/24 02:09:13;;;;;;;32.40;18.00;;;;;;;-0.90;52.24;101553.42;117287;1185;21852;-61
2022/01/24 02:11:42;;;;;;;28.00;15.50;;;;;;;-0.90;52.41;101551.17;117254;1186;22962;-51
2022/01/24 02:14:16;;;;;;;29.90;16.00;;;;;;;-0.91;52.30;101555.63;117200;1182;23487;-51
2022/01/24 02:16:57;;;;;;;30.10;16.70;;;;;;;-0.91;52.28;101557.00;117136;1186;21845;-51
2022/01/24 02:19:34;;;;;;;;;;;;;;;-0.92;52.27;101558.14;117257;1184;22633;-52
2022/01/24 02:22:37;;;;;;;25.40;14.80;;;;;;;-0.93;52.30;101560.30;117074;1186;22922;-51
2022/01/24 02:25:01;;;;;;;30.20;15.80;;;;;;;-0.95;52.38;101555.23;117166;1186;23453;-51
2022/01/24 02:27:41;;;;;;;27.00;15.10;;;;;;;-0.97;52.14;101561.49;117108;1186;23295;-61
2022/01/24 02:30:24;;;;;;;26.40;15.40;;;;;;;-0.99;52.35;101568.27;117246;1183;21969;-62
2022/01/24 02:32:55;;;;;;;28.20;15.50;;;;;;;-1.00;52.36;101568.02;117122;1186;22747;-51
2022/01/24 02:35:23;;;;;;;28.40;15.60;;;;;;;-1.02;52.34;101569.66;117128;1186;21846;-61
2022/01/24 02:37:52;;;;;;;32.40;16.70;;;;;;;-1.02;52.39;101573.63;117259;1183;21848;-51
2022/01/24 02:40:21;;;;;;;27.40;15.60;;;;;;;-1.02;52.27;101574.31;117169;1179;23516;-62
2022/01/24 02:53:32;;;;;;;29.40;15.50;;;;;;;-1.02;52.31;101572.60;117225;1184;23453;-51
2022/01/24 02:56:02;;;;;;;31.00;15.20;;;;;;;-1.01;52.23;101572.26;117216;1177;22622;-61
2022/01/24 02:58:30;;;;;;;28.20;15.00;;;;;;;-1.02;52.28;101576.55;117192;1185;21901;-51
2022/01/24 03:00:59;;;;;;;26.20;13.80;;;;;;;-1.01;52.56;101580.38;117209;1185;21858;-61
2022/01/24 03:03:27;;;;;;;27.10;15.20;;;;;;;-1.00;52.37;101578.70;117089;1186;23454;-51
2022/01/24 03:05:56;;;;;;;29.10;15.00;;;;;;;-1.01;52.43;101576.43;117260;1183;23551;-51
2022/01/24 03:08:24;;;;;;;27.30;15.40;;;;;;;-1.03;52.41;101584.42;117240;1186;21865;-52
2022/01/24 03:10:53;;;;;;;27.00;15.00;;;;;;;-1.02;52.25;101582.40;117196;1186;23449;-61
2022/01/24 03:15:56;;;;;;;29.00;15.90;;;;;;;-1.06;52.25;101588.55;117274;1182;21958;-62
2022/01/24 03:18:25;;;;;;;20.20;11.20;;;;;;;-1.08;52.48;101585.88;117196;1183;22940;-60
2022/01/24 03:20:54;;;;;;;25.90;14.10;;;;;;;-1.09;52.49;101593.23;117261;1185;22218;-51
2022/01/24 03:23:23;;;;;;;23.30;13.10;;;;;;;-1.10;52.10;101595.06;117155;1187;22716;-51
2022/01/24 03:25:51;;;;;;;26.90;15.30;;;;;;;-1.11;52.23;101596.92;117096;1189;21845;-61
2022/01/24 03:28:20;;;;;;;25.60;13.80;;;;;;;-1.11;52.23;101594.14;117299;1185;24172;-61
2022/01/24 03:30:48;;;;;;;29.20;15.00;;;;;;;-1.13;52.29;101596.64;117221;1181;23488;-54
2022/01/24 03:33:16;;;;;;;28.10;15.10;;;;;;;-1.14;52.24;101605.71;117217;1182;23472;-52
2022/01/24 03:35:45;;;;;;;27.90;14.00;;;;;;;-1.14;52.14;101609.48;117093;1186;23858;-61
2022/01/24 03:38:13;;;;;;;30.80;13.20;;;;;;;-1.15;52.18;101607.35;117259;1185;22942;-51
2022/01/24 03:40:41;;;;;;;26.60;14.60;;;;;;;-1.15;52.46;101607.22;117212;1182;23451;-51
2022/01/24 03:43:11;;;;;;;27.50;13.90;;;;;;;-1.15;52.25;101606.69;117086;1185;23600;-51
2022/01/24 03:45:46;;;;;;;27.30;13.30;;;;;;;-1.16;52.39;101612.99;117126;1184;23531;-60
2022/01/24 03:48:38;;;;;;;26.20;13.70;;;;;;;-1.17;52.23;101612.96;117089;1186;22012;-59
2022/01/24 03:51:06;;;;;;;24.90;13.90;;;;;;;-1.19;52.38;101607.70;117248;1182;23449;-59
2022/01/24 03:53:35;;;;;;;28.10;14.30;;;;;;;-1.20;52.34;101604.99;117204;1186;23612;-50
2022/01/24 03:56:03;;;;;;;25.00;13.60;;;;;;;-1.21;52.40;101608.75;117205;1186;22645;-49
2022/01/24 03:58:32;;;;;;;24.80;14.10;;;;;;;-1.22;52.25;101607.15;117239;1185;21879;-49
2022/01/24 04:01:02;;;;;;;27.80;13.70;;;;;;;-1.23;52.34;101611.27;117048;1186;23647;-49
2022/01/24 04:03:30;;;;;;;27.80;13.60;;;;;;;-1.23;52.26;101614.20;117329;1185;21979;-59
2022/01/24 04:05:59;;;;;;;23.30;12.50;;;;;;;-1.23;52.36;101613.63;117319;1182;22115;-59
2022/01/24 04:08:28;;;;;;;28.00;15.50;;;;;;;-1.24;52.18;101614.96;117234;1182;21897;-58
2022/01/24 04:10:58;;;;;;;24.10;13.90;;;;;;;-1.27;52.21;101615.32;117186;1186;23551;-49
2022/01/24 04:13:34;;;;;;;24.20;14.60;;;;;;;-1.30;52.24;101616.16;117201;1186;23587;-49
2022/01/24 04:18:42;;;;;;;22.90;13.00;;;;;;;-1.38;52.34;101623.35;117264;1186;21858;-59
2022/01/24 04:21:27;;;;;;;26.10;13.50;;;;;;;-1.41;52.38;101627.45;117192;1183;23652;-49
2022/01/24 04:24:08;;;;;;;27.60;14.50;;;;;;;-1.42;52.30;101626.00;117269;1185;23479;-59
2022/01/24 04:26:37;;;;;;;26.50;14.00;;;;;;;-1.47;52.45;101625.75;117111;1186;22269;-56
2022/01/24 04:29:06;;;;;;;25.60;14.40;;;;;;;-1.50;52.42;101627.16;117256;1185;22645;-52
2022/01/24 04:31:34;;;;;;;21.80;13.30;;;;;;;-1.52;52.37;101631.30;117202;1186;22806;-60
2022/01/24 04:34:03;;;;;;;28.30;13.10;;;;;;;-1.56;52.20;101628.66;117261;1186;23477;-60
2022/01/24 04:36:31;;;;;;;24.00;12.90;;;;;;;-1.60;52.26;101633.30;117199;1183;22622;-50
2022/01/24 04:38:59;;;;;;;24.70;13.90;;;;;;;-1.62;52.38;101633.17;117253;1182;23047;-49
2022/01/24 04:41:35;;;;;;;27.10;13.60;;;;;;;-1.65;52.37;101634.75;117193;1185;22011;-60
2022/01/24 04:46:58;;;;;;;35.60;18.30;;;;;;;-1.66;52.32;101647.21;117080;1186;23570;-60
2022/01/24 04:52:28;;;;;;;26.30;13.90;;;;;;;-1.71;52.27;101647.63;117230;1186;21903;-49
2022/01/24 04:54:56;;;;;;;34.50;17.60;;;;;;;-1.73;52.45;101650.05;117151;1186;21845;-50
2022/01/24 04:57:26;;;;;;;26.70;15.80;;;;;;;-1.76;52.36;101648.71;117190;1185;22932;-60
2022/01/24 04:59:56;;;;;;;25.40;13.70;;;;;;;-1.79;52.34;101654.08;117089;1186;22697;-49
2022/01/24 05:02:25;;;;;;;38.20;22.20;;;;;;;-1.81;52.23;101657.58;117230;1182;23596;-59
2022/01/24 05:04:53;;;;;;;27.00;15.90;;;;;;;-1.83;52.43;101653.86;117192;1186;21845;-59
2022/01/24 05:07:22;;;;;;;23.40;12.10;;;;;;;-1.84;52.25;101656.00;117196;1182;23453;-60
2022/01/24 05:26:01;;;;;;;27.20;14.00;;;;;;;-1.83;52.66;101666.05;117141;1183;23520;-63
2022/01/24 05:28:30;;;;;;;32.00;15.60;;;;;;;-1.72;52.82;101665.61;117183;1188;23783;-48
2022/01/24 05:30:59;;;;;;;28.50;14.30;;;;;;;-1.65;52.74;101662.27;117185;1184;22609;-64
2022/01/24 05:33:28;;;;;;;30.70;13.50;;;;;;;-1.59;52.46;101664.65;117203;1182;22728;-48
2022/01/24 05:35:57;;;;;;;30.80;13.10;;;;;;;-1.55;52.75;101668.33;117146;1182;24146;-50
2022/01/24 05:38:25;;;;;;;24.90;12.20;;;;;;;-1.51;52.67;101669.60;117154;1186;21861;-48
2022/01/24 05:40:54;;;;;;;22.40;12.10;;;;;;;-1.44;52.70;101674.99;117068;1187;22808;-49
2022/01/24 05:43:22;;;;;;;25.00;12.80;;;;;;;-1.42;52.60;101675.25;117208;1186;21953;-59
2022/01/24 05:45:51;;;;;;;27.70;13.30;;;;;;;-1.46;52.43;101679.17;117197;1182;23453;-61
2022/01/24 05:48:19;;;;;;;31.30;13.40;;;;;;;-1.53;52.43;101678.63;117195;1183;24160;-60
2022/01/24 05:50:47;;;;;;;32.80;16.10;;;;;;;-1.60;52.27;101686.33;117173;1179;21858;-50
2022/01/24 05:53:16;;;;;;;42.60;18.40;;;;;;;-1.66;52.38;101693.37;117139;1185;21988;-50
2022/01/24 05:55:44;;;;;;;34.50;17.50;;;;;;;-1.69;52.63;101695.91;117229;1186;24223;-49
2022/01/24 05:58:12;;;;;;;39.20;18.90;;;;;;;-1.71;52.41;101705.98;117210;1186;23487;-49
2022/01/24 06:00:41;;;;;;;30.70;16.20;;;;;;;-1.74;52.31;101708.56;117307;1186;23483;-50
2022/01/24 06:03:10;;;;;;;23.70;12.40;;;;;;;-1.75;52.41;101707.47;117224;1178;23450;-59
2022/01/24 06:05:38;;;;;;;20.70;11.90;;;;;;;-1.75;52.39;101709.34;119322;1185;21687;-60
2022/01/24 06:08:06;;;;;;;20.80;10.80;;;;;;;-1.75;52.63;101719.17;118159;1185;23553;-50
2022/01/24 06:10:37;;;;;;;19.90;11.10;;;;;;;-1.72;52.72;101719.33;117396;1186;24182;-50
2022/01/24 06:13:22;;;;;;;20.40;10.40;;;;;;;-1.67;52.66;101719.13;117526;1188;22658;-50
2022/01/24 06:15:50;;;;;;;18.70;11.00;;;;;;;-1.63;52.65;101722.79;117114;1185;23492;-60
2022/01/24 06:18:20;;;;;;;19.00;11.00;;;;;;;-1.59;52.71;101724.40;117226;1186;21856;-60
2022/01/24 06:20:48;;;;;;;22.40;10.70;;;;;;;-1.53;52.50;101726.31;117190;1186;21858;-49
2022/01/24 06:23:17;;;;;;;18.30;10.30;;;;;;;-1.47;52.60;101731.79;117231;1186;23830;-60
2022/01/24 06:25:45;;;;;;;22.80;10.00;;;;;;;-1.43;52.75;101735.84;117211;1183;23587;-60
2022/01/24 06:28:14;;;;;;;17.90;10.30;;;;;;;-1.39;52.67;101733.30;117087;1179;21860;-59
2022/01/24 06:30:44;;;;;;;20.80;10.70;;;;;;;-1.35;52.62;101736.80;117149;1182;23591;-60
2022/01/24 06:33:12;;;;;;;21.30;12.00;;;;;;;-1.31;52.48;101737.36;117196;1182;21844;-49
2022/01/24 06:35:40;;;;;;;33.10;13.10;;;;;;;-1.29;52.49;101741.98;117160;1183;24147;-49
2022/01/24 06:38:08;;;;;;;22.70;11.30;;;;;;;-1.24;52.68;101738.83;117224;1183;23474;-49
2022/01/24 06:40:38;;;;;;;19.40;10.20;;;;;;;-1.17;52.75;101741.81;117156;1179;24173;-64
2022/01/24 06:43:16;;;;;;;19.30;9.40;;;;;;;-1.12;52.89;101737.05;117303;1186;23101;-62
2022/01/24 06:45:46;;;;;;;18.40;10.70;;;;;;;-1.08;52.61;101736.27;117280;1185;24182;-50
2022/01/24 06:48:15;;;;;;;;;;;;;;;-1.05;52.80;101737.14;116905;1185;23559;-62
2022/01/24 06:50:44;;;;;;;17.50;9.70;;;;;;;-1.01;52.75;101739.78;117316;1185;21944;-64
2022/01/24 06:53:12;;;;;;;20.10;10.20;;;;;;;-0.96;52.89;101736.06;117288;1185;21850;-50
2022/01/24 06:55:41;;;;;;;20.10;10.70;;;;;;;-0.93;52.85;101737.64;117227;1183;22446;-50
2022/01/24 06:58:10;;;;;;;22.30;10.20;;;;;;;-0.89;52.67;101739.25;117288;1186;22807;-62
2022/01/24 07:00:38;;;;;;;18.30;10.10;;;;;;;-0.86;52.90;101744.91;117347;1186;23452;-49
2022/01/24 07:03:07;;;;;;;21.50;9.60;;;;;;;-0.81;52.98;101747.24;117352;1183;23448;-49
2022/01/24 07:05:36;;;;;;;17.60;9.60;;;;;;;-0.76;52.96;101749.79;117305;1182;21845;-50
2022/01/24 07:08:06;;;;;;;16.40;9.40;;;;;;;-0.72;52.87;101744.98;117173;1186;21845;-62
2022/01/24 07:10:37;;;;;;;19.60;9.50;;;;;;;-0.68;52.87;101749.02;117205;1186;21845;-62
2022/01/24 07:13:05;;;;;;;18.00;9.20;;;;;;;-0.65;52.98;101748.66;117169;1185;23475;-61
2022/01/24 07:15:39;;;;;;;16.90;8.90;;;;;;;-0.64;53.04;101752.66;117320;1181;22318;-50
2022/01/24 07:20:55;;;;;;;25.40;10.30;;;;;;;-0.59;53.00;101755.55;117340;1185;22927;-62
2022/01/24 07:23:23;;;;;;;13.00;7.30;;;;;;;-0.59;53.01;101756.59;117354;1185;23479;-50
2022/01/24 07:25:57;;;;;;;12.90;7.80;;;;;;;-0.57;52.87;101759.24;117350;1184;23650;-61
2022/01/24 07:28:25;;;;;;;19.10;8.10;;;;;;;-0.57;52.81;101761.37;117134;1185;21898;-61
2022/01/24 07:30:53;;;;;;;14.50;7.90;;;;;;;-0.51;53.01;101764.41;117367;1176;24309;-61
2022/01/24 07:33:22;;;;;;;15.20;8.50;;;;;;;-0.47;52.96;101762.27;117224;1183;22915;-50
2022/01/24 07:35:50;;;;;;;12.60;7.90;;;;;;;-0.47;52.92;101759.84;117201;1182;23591;-60
2022/01/24 07:38:18;;;;;;;14.20;8.00;;;;;;;-0.47;52.73;101758.63;117083;1183;23474;-50
2022/01/24 07:40:50;;;;;;;14.20;8.00;;;;;;;-0.49;53.00;101761.45;117173;1183;22929;-52
2022/01/24 07:43:19;;;;;;;14.50;8.30;;;;;;;-0.53;52.92;101768.65;116948;1186;23588;-50
2022/01/24 07:45:48;;;;;;;14.30;8.10;;;;;;;-0.54;52.72;101776.14;117320;1182;22047;-61
2022/01/24 07:48:17;;;;;;;11.50;7.20;;;;;;;-0.54;52.85;101767.89;117339;1185;21868;-60
2022/01/24 07:50:47;;;;;;;11.40;7.30;;;;;;;-0.53;53.03;101774.46;117397;1185;21858;-50
2022/01/24 07:53:15;;;;;;;13.80;8.20;;;;;;;-0.53;52.98;101768.81;117305;1185;21861;-50
2022/01/24 07:56:05;;;;;;;15.90;8.70;;;;;;;-0.50;53.03;101770.50;117084;1182;24248;-48
2022/01/24 07:58:33;;;;;;;13.70;7.30;;;;;;;-0.41;53.01;101768.27;117070;1186;21881;-52
2022/01/24 08:01:02;;;;;;;13.30;7.80;;;;;;;-0.10;52.70;101767.83;117090;1182;22012;-50
2022/01/24 08:03:31;;;;;;;13.80;8.00;;;;;;;-0.10;52.81;101770.07;117350;1185;21864;-50
2022/01/24 08:06:00;;;;;;;12.40;7.60;;;;;;;-0.11;52.90;101768.11;117185;1185;22800;-60
2022/01/24 08:08:28;;;;;;;12.40;7.20;;;;;;;-0.13;52.69;101763.17;117098;1186;22654;-61
2022/01/24 08:10:56;;;;;;;11.60;7.80;;;;;;;-0.13;52.62;101759.71;117309;1186;23509;-50
2022/01/24 08:13:31;;;;;;;11.90;7.40;;;;;;;-0.11;52.72;101758.98;117148;1183;23489;-50
2022/01/24 08:15:59;;;;;;;12.60;7.00;;;;;;;-0.08;52.69;101750.66;117205;1182;21877;-50
2022/01/24 08:18:27;;;;;;;13.40;7.90;;;;;;;-0.09;52.72;101749.27;117098;1182;21920;-50
2022/01/24 08:20:55;;;;;;;11.70;7.30;;;;;;;-0.07;52.78;101745.08;117071;1185;21874;-50
2022/01/24 08:23:24;;;;;;;14.10;7.90;;;;;;;-0.06;52.90;101755.63;117301;1182;21870;-51
2022/01/24 08:25:55;;;;;;;13.40;8.00;;;;;;;-0.06;52.81;101759.77;117303;1182;23467;-50
2022/01/24 08:28:23;;;;;;;16.50;9.40;;;;;;;-0.06;52.82;101761.36;117304;1185;24297;-50
2022/01/24 08:30:52;;;;;;;15.20;9.80;;;;;;;-0.03;52.81;101763.06;117129;1184;23415;-50
2022/01/24 08:33:21;;;;;;;12.60;8.50;;;;;;;-0.01;52.61;101765.76;117295;1182;23644;-51
2022/01/24 08:35:51;;;;;;;11.50;7.20;;;;;;;0.01;52.90;101767.54;117326;1182;22629;-60
2022/01/24 08:38:21;;;;;;;12.50;7.00;;;;;;;0.02;52.75;101760.35;117336;1186;23711;-51
2022/01/24 08:40:53;;;;;;;11.80;7.20;;;;;;;0.03;52.81;101759.86;117409;1186;21867;-58
2022/01/24 08:43:36;;;;;;;13.90;8.40;;;;;;;0.03;52.82;101761.80;117233;1182;22509;-51
2022/01/24 08:46:05;;;;;;;12.00;7.10;;;;;;;0.04;52.81;101761.33;117283;1182;23483;-61
2022/01/24 08:48:35;;;;;;;11.30;6.90;;;;;;;0.04;52.73;101767.38;117181;1186;21870;-51
2022/01/24 08:51:03;;;;;;;12.30;7.70;;;;;;;0.07;52.75;101764.06;117179;1185;23558;-61
2022/01/24 08:53:34;;;;;;;15.50;9.00;;;;;;;0.11;52.80;101758.23;117277;1185;23460;-61
2022/01/24 08:56:15;;;;;;;12.80;7.60;;;;;;;0.13;52.65;101751.63;117218;1186;23477;-60
2022/01/24 08:58:43;;;;;;;10.90;6.70;;;;;;;0.13;52.62;101753.17;117362;1185;21889;-51
2022/01/24 09:01:11;;;;;;;12.70;7.30;;;;;;;0.12;52.91;101755.34;117290;1185;23485;-50
2022/01/24 09:03:41;;;;;;;10.00;6.60;;;;;;;0.10;52.70;101763.20;117184;1179;23454;-60
2022/01/24 09:06:10;;;;;;;13.20;7.50;;;;;;;0.13;52.62;101757.66;117162;1186;22863;-60
2022/01/24 09:08:39;;;;;;;11.40;6.60;;;;;;;0.21;52.52;101764.45;117341;1176;23869;-50
2022/01/24 09:11:07;;;;;;;17.60;7.80;;;;;;;0.22;52.49;101770.91;117208;1183;21864;-49
2022/01/24 09:13:36;;;;;;;13.00;7.10;;;;;;;0.30;52.77;101775.61;117202;1183;23489;-60
2022/01/24 09:16:04;;;;;;;11.90;7.30;;;;;;;0.38;52.70;101773.12;117184;1182;23488;-61
2022/01/24 09:18:33;;;;;;;10.00;6.50;;;;;;;0.47;53.01;101766.66;117113;1179;22864;-50
2022/01/24 09:21:01;;;;;;;10.70;7.00;;;;;;;0.55;53.04;101769.79;117206;1179;21859;-50
2022/01/24 09:23:30;;;;;;;10.90;6.80;;;;;;;0.60;52.98;101764.54;117073;1182;23645;-61
2022/01/24 09:25:58;;;;;;;21.30;9.90;;;;;;;0.65;52.98;101752.17;117197;1182;22008;-50
2022/01/24 09:28:26;;;;;;;16.20;8.70;;;;;;;0.70;53.09;101746.73;117048;1178;21974;-49
2022/01/24 09:30:55;;;;;;;13.10;8.00;;;;;;;0.76;52.97;101753.24;117186;1186;22943;-60
2022/01/24 09:33:24;;;;;;;11.30;6.90;;;;;;;0.82;52.97;101757.02;117116;1183;23532;-49
2022/01/24 09:35:55;;;;;;;11.60;6.80;;;;;;;0.89;52.98;101752.84;117153;1186;23207;-50
2022/01/24 09:38:24;;;;;;;12.00;7.50;;;;;;;0.92;52.89;101742.59;117187;1183;24168;-49
2022/01/24 09:40:52;;;;;;;13.70;7.40;;;;;;;0.86;53.04;101745.61;117143;1187;23384;-61
2022/01/24 09:43:20;;;;;;;16.20;9.60;;;;;;;0.81;52.82;101743.11;117262;1185;23657;-62
2022/01/24 09:45:49;;;;;;;12.70;7.70;;;;;;;0.80;52.69;101746.36;117165;1182;22833;-61
2022/01/24 09:48:17;;;;;;;12.90;8.70;;;;;;;0.75;52.86;101750.07;117134;1176;21857;-61
2022/01/24 09:50:46;;;;;;;13.50;8.00;;;;;;;0.71;52.69;101752.35;117193;1186;23451;-61
2022/01/24 09:53:14;;;;;;;10.10;6.80;;;;;;;0.66;52.89;101746.02;117178;1186;21875;-50
2022/01/24 09:55:42;;;;;;;14.50;7.80;;;;;;;0.62;52.65;101741.14;117085;1181;23482;-62
2022/01/24 09:58:11;;;;;;;16.60;9.40;;;;;;;0.55;52.50;101746.70;117225;1179;21980;-51
2022/01/24 10:00:39;;;;;;;21.10;12.20;;;;;;;0.49;52.77;101741.17;117265;1182;23452;-51
2022/01/24 10:03:08;;;;;;;20.00;11.70;;;;;;;0.44;52.73;101739.92;117165;1182;21855;-50
2022/01/24 10:05:57;;;;;;;17.30;10.40;;;;;;;0.43;52.78;101736.08;117128;1179;23461;-61
2022/01/24 10:08:31;;;;;;;16.40;10.20;;;;;;;0.41;52.89;101733.71;117077;1186;22928;-60
2022/01/24 10:11:01;;;;;;;18.20;10.00;;;;;;;0.38;52.65;101737.05;117082;1182;22929;-61
2022/01/24 10:19:15;;;;;;;11.20;7.30;;;;;;;0.32;52.26;101738.11;117191;1182;23900;-61
2022/01/24 10:22:00;;;;;;;12.30;6.90;;;;;;;0.35;52.54;101730.98;117208;1186;23486;-61
2022/01/24 10:24:38;;;;;;;13.80;7.10;;;;;;;0.40;52.92;101727.11;117324;1184;23547;-52
2022/01/24 10:27:18;;;;;;;13.00;7.40;;;;;;;0.48;52.65;101728.34;119254;1185;23454;-50
2022/01/24 10:29:59;;;;;;;13.80;7.40;;;;;;;0.52;52.79;101723.36;117413;1186;22856;-61
2022/01/24 10:32:33;;;;;;;12.00;7.60;;;;;;;0.57;53.05;101720.88;117216;1185;23475;-50
2022/01/24 10:35:31;;;;;;;11.90;6.80;;;;;;;0.61;52.82;101719.51;117049;1182;24725;-50
2022/01/24 10:38:30;;;;;;;14.50;8.00;;;;;;;0.64;52.89;101712.05;117175;1182;21901;-60
2022/01/24 10:41:22;;;;;;;12.30;7.60;;;;;;;0.63;52.73;101716.52;117201;1184;23454;-51
2022/01/24 10:43:56;;;;;;;24.00;12.80;;;;;;;0.61;52.73;101715.02;117217;1186;22936;-61
2022/01/24 10:46:45;;;;;;;18.90;11.70;;;;;;;0.54;52.82;101719.71;117119;1186;23475;-51
2022/01/24 10:49:15;;;;;;;13.40;7.50;;;;;;;0.55;52.95;101716.09;117212;1183;22166;-62
2022/01/24 10:51:44;;;;;;;13.90;8.70;;;;;;;0.59;52.96;101711.13;117213;1185;23450;-50
2022/01/24 10:54:14;;;;;;;13.20;7.70;;;;;;;0.61;52.77;101710.84;117062;1182;24175;-50
2022/01/24 10:56:44;;;;;;;14.60;8.10;;;;;;;0.59;52.73;101719.09;117193;1184;21885;-51
2022/01/24 10:59:18;;;;;;;11.20;7.30;;;;;;;0.56;52.86;101728.56;117086;1188;21861;-51
2022/01/24 11:01:50;;;;;;;11.40;7.20;;;;;;;0.52;52.83;101729.23;117265;1186;22978;-51
2022/01/24 11:04:20;;;;;;;12.70;7.90;;;;;;;0.52;52.72;101735.13;117228;1182;23487;-52
2022/01/24 11:06:51;;;;;;;14.20;7.80;;;;;;;0.54;52.42;101738.86;117172;1182;24168;-52
2022/01/24 11:09:29;;;;;;;;;;;;;;;0.53;52.64;101740.19;117272;1185;22782;-51
2022/01/24 11:12:10;;;;;;;13.40;8.10;;;;;;;0.47;52.59;101736.55;117295;1182;21964;-62
2022/01/24 11:14:43;;;;;;;15.10;8.30;;;;;;;0.29;52.51;101739.64;117093;1179;22939;-61
2022/01/24 11:17:15;;;;;;;14.80;9.00;;;;;;;0.17;52.41;101744.02;117155;1182;23901;-63
2022/01/24 11:19:48;;;;;;;16.20;8.00;;;;;;;0.08;52.44;101753.75;117088;1182;22940;-52
2022/01/24 11:22:26;;;;;;;15.50;8.80;;;;;;;0.02;52.46;101748.27;116976;1186;21865;-63
2022/01/24 11:25:02;;;;;;;18.80;8.80;;;;;;;-0.07;52.54;101750.55;117058;1182;22935;-62
2022/01/24 11:27:44;;;;;;;13.50;7.70;;;;;;;-0.15;52.33;101746.90;117180;1186;21885;-61
2022/01/24 11:30:51;;;;;;;14.10;8.40;;;;;;;-0.20;52.62;101745.73;117205;1179;23451;-61
2022/01/24 11:33:28;;;;;;;12.60;8.40;;;;;;;-0.22;52.71;101747.04;117175;1182;24156;-51
2022/01/24 11:36:00;;;;;;;13.70;9.10;;;;;;;-0.18;52.70;101749.46;117098;1186;21854;-51
2022/01/24 11:38:35;;;;;;;13.40;7.60;;;;;;;-0.12;52.54;101748.42;117154;1186;21869;-63
2022/01/24 11:41:05;;;;;;;11.50;7.80;;;;;;;-0.12;52.84;101747.54;117255;1182;24332;-51
2022/01/24 11:43:40;;;;;;;17.40;7.90;;;;;;;-0.14;52.60;101737.61;117198;1183;22809;-51
2022/01/24 11:46:48;;;;;;;16.30;8.00;;;;;;;-0.17;52.56;101736.09;117162;1185;21894;-51
2022/01/24 11:49:18;;;;;;;15.80;8.30;;;;;;;-0.20;52.44;101738.67;116913;1188;21871;-63
2022/01/24 11:51:59;;;;;;;13.40;9.70;;;;;;;-0.24;52.77;101735.88;116957;1184;23073;-50
2022/01/24 11:57:20;;;;;;;17.70;10.50;;;;;;;-0.37;52.82;101729.98;116953;1179;24158;-52
2022/01/24 11:59:50;;;;;;;14.50;9.50;;;;;;;-0.47;52.64;101731.88;116997;1186;21827;-62
2022/01/24 12:02:21;;;;;;;20.80;11.60;;;;;;;-0.54;52.69;101733.41;116929;1185;22946;-52
2022/01/24 12:04:52;;;;;;;14.80;9.50;;;;;;;-0.59;53.00;101735.88;116932;1186;22928;-62
2022/01/24 12:07:25;;;;;;;16.00;10.00;;;;;;;-0.63;52.72;101738.80;116975;1189;23471;-51
2022/01/24 12:09:55;;;;;;;19.30;10.50;;;;;;;-0.62;53.20;101737.30;116979;1179;21856;-50
2022/01/24 12:12:44;;;;;;;15.60;9.50;;;;;;;-0.54;53.04;101735.77;116969;1184;22944;-49
2022/01/24 12:15:37;;;;;;;17.40;10.00;;;;;;;-0.46;52.95;101736.92;117001;1188;21863;-61
2022/01/24 12:18:08;;;;;;;17.80;9.20;;;;;;;-0.47;52.90;101739.99;116940;1186;23542;-61
2022/01/24 12:20:37;;;;;;;15.90;9.50;;;;;;;-0.51;52.95;101737.18;116883;1186;24158;-50
2022/01/24 12:23:19;;;;;;;15.20;8.70;;;;;;;-0.57;52.82;101736.53;116936;1183;22927;-51
2022/01/24 12:26:11;;;;;;;16.70;8.90;;;;;;;-0.65;52.92;101742.65;117052;1179;22629;-50
2022/01/24 12:28:43;;;;;;;17.20;9.60;;;;;;;-0.68;53.01;101741.42;117191;1182;22656;-50
2022/01/24 12:31:44;;;;;;;16.40;8.70;;;;;;;-0.66;53.15;101737.90;117255;1176;23510;-50
2022/01/24 12:34:18;;;;;;;19.80;8.80;;;;;;;-0.61;53.12;101741.97;117157;1182;23574;-50
2022/01/24 12:36:52;;;;;;;15.50;8.70;;;;;;;-0.59;53.24;101736.40;117043;1185;21857;-48
2022/01/24 12:39:20;;;;;;;16.50;8.90;;;;;;;-0.55;53.22;101737.66;117235;1186;21862;-49
2022/01/24 12:42:01;;;;;;;17.70;9.20;;;;;;;-0.50;53.20;101733.60;117118;1183;21964;-66
2022/01/24 12:47:11;;;;;;;14.30;8.50;;;;;;;-0.33;53.30;101737.42;117050;1186;23554;-50
2022/01/24 12:49:40;;;;;;;17.10;8.00;;;;;;;-0.33;53.27;101739.38;117241;1186;21860;-49
2022/01/24 12:52:10;;;;;;;14.40;9.10;;;;;;;-0.38;52.98;101739.41;117256;1182;22916;-64
2022/01/24 12:54:44;;;;;;;15.40;8.60;;;;;;;-0.42;53.04;101738.84;117088;1183;23628;-62
2022/01/24 12:57:14;;;;;;;14.40;9.20;;;;;;;-0.51;52.92;101743.24;117239;1186;21873;-63
2022/01/24 13:00:07;;;;;;;12.90;7.80;;;;;;;-0.58;53.14;101742.30;117270;1185;21860;-65
2022/01/24 13:02:38;;;;;;;15.90;8.70;;;;;;;-0.62;53.23;101746.09;117248;1179;22655;-63
2022/01/24 13:05:20;;;;;;;14.30;8.00;;;;;;;-0.66;53.18;101748.95;117209;1184;23579;-63
2022/01/24 13:07:52;;;;;;;18.00;8.30;;;;;;;-0.70;52.99;101750.25;117164;1185;21857;-62
2022/01/24 13:10:32;;;;;;;14.10;8.30;;;;;;;-0.77;53.01;101749.73;117050;1180;22877;-49